createdAt,value
2022-09-12T00:03:06.976Z,65.60
2022-09-12T00:08:06.908Z,64.50
2022-09-12T00:13:06.826Z,62.10
2022-09-12T00:18:06.783Z,60.10
2022-09-12T00:23:06.885Z,63.20
2022-09-12T00:28:06.655Z,64.40
2022-09-12T00:33:06.580Z,68.30
2022-09-12T00:38:06.553Z,68.80
2022-09-12T00:43:06.458Z,62.80
2022-09-12T00:48:06.393Z,65.30
2022-09-12T00:53:06.305Z,68.40
2022-09-12T00:58:06.267Z,72.70
2022-09-12T01:03:06.187Z,75.70
2022-09-12T01:08:06.123Z,82.60
2022-09-12T01:13:06.045Z,82.40
2022-09-12T01:18:06.004Z,85.30
2022-09-12T01:23:05.921Z,92.70
2022-09-12T01:28:06.051Z,90.00
2022-09-12T01:33:05.780Z,106.80
2022-09-12T01:38:05.723Z,112.10
2022-09-12T01:43:05.761Z,108.80
2022-09-12T01:48:05.593Z,105.40
2022-09-12T01:53:05.552Z,106.90
2022-09-12T01:58:05.463Z,96.80
2022-09-12T02:03:05.392Z,108.50
2022-09-12T02:08:05.302Z,108.00
2022-09-12T02:13:05.239Z,101.80
2022-09-12T02:18:05.201Z,96.30
2022-09-12T02:23:05.124Z,91.70
2022-09-12T02:28:05.053Z,97.60
2022-09-12T02:33:05.022Z,94.20
2022-09-12T02:38:04.944Z,101.10
2022-09-12T02:43:04.836Z,88.50
2022-09-12T02:48:04.757Z,91.60
2022-09-12T02:53:04.704Z,83.70
2022-09-12T02:58:04.624Z,97.40
2022-09-12T03:03:04.544Z,93.40
2022-09-12T03:08:04.495Z,87.60
2022-09-12T03:13:04.739Z,90.80
2022-09-12T03:18:04.377Z,88.80
2022-09-12T03:23:04.397Z,82.40
2022-09-12T03:28:04.290Z,77.30
2022-09-12T03:33:04.192Z,82.40
2022-09-12T03:38:04.267Z,87.20
2022-09-12T03:43:04.452Z,82.20
2022-09-12T03:48:04.017Z,81.90
2022-09-12T03:53:04.173Z,85.70
2022-09-12T03:58:03.824Z,80.30
2022-09-12T04:03:03.806Z,83.60
2022-09-12T04:08:03.686Z,80.30
2022-09-12T04:13:03.645Z,79.10
2022-09-12T04:18:05.916Z,81.80
2022-09-12T04:23:03.490Z,76.50
2022-09-12T04:28:03.416Z,80.30
2022-09-12T04:33:07.932Z,74.70
2022-09-12T04:38:03.260Z,69.10
2022-09-12T04:43:03.396Z,71.90
2022-09-12T04:48:03.190Z,67.50
2022-09-12T04:53:03.104Z,68.50
2022-09-12T04:58:03.010Z,74.00
2022-09-12T05:03:02.967Z,62.10
2022-09-12T05:08:02.877Z,53.10
2022-09-12T05:13:02.927Z,49.70
2022-09-12T05:18:02.731Z,45.80
2022-09-12T05:23:02.678Z,39.20
2022-09-12T05:28:02.675Z,35.30
2022-09-12T05:33:02.553Z,37.40
2022-09-12T05:38:02.474Z,38.10
2022-09-12T05:43:02.418Z,38.20
2022-09-12T05:48:02.427Z,35.90
2022-09-12T05:53:02.283Z,36.00
2022-09-12T05:58:02.251Z,30.80
2022-09-12T06:03:02.208Z,33.00
2022-09-12T06:08:02.136Z,35.80
2022-09-12T06:13:02.099Z,35.80
2022-09-12T06:18:02.001Z,33.20
2022-09-12T06:23:01.964Z,31.10
2022-09-12T06:28:01.809Z,29.00
2022-09-12T06:33:01.766Z,29.90
2022-09-12T06:38:01.730Z,30.30
2022-09-12T06:43:01.670Z,22.60
2022-09-12T06:48:01.697Z,26.20
2022-09-12T06:53:01.699Z,28.20
2022-09-12T06:58:01.457Z,26.50
2022-09-12T07:03:01.401Z,25.20
2022-09-12T07:08:01.318Z,22.60
2022-09-12T07:13:01.285Z,24.70
2022-09-12T07:18:01.245Z,26.60
2022-09-12T07:23:01.111Z,28.20
2022-09-12T07:28:01.037Z,25.60
2022-09-12T07:33:00.987Z,21.30
2022-09-12T07:38:00.934Z,20.90
2022-09-12T07:43:00.878Z,19.40
2022-09-12T07:48:00.776Z,23.60
2022-09-12T07:53:00.704Z,21.70
2022-09-12T07:58:00.644Z,19.90
2022-09-12T08:03:00.593Z,19.80
2022-09-12T08:08:00.485Z,17.10
2022-09-12T08:13:00.467Z,16.30
2022-09-12T08:18:00.395Z,14.50
2022-09-12T08:23:00.309Z,16.00
2022-09-12T08:28:00.262Z,14.70
2022-09-12T08:33:00.261Z,14.00
2022-09-12T08:38:00.187Z,10.00
2022-09-12T08:43:00.268Z,9.90
2022-09-12T08:47:59.991Z,11.10
2022-09-12T08:52:59.923Z,11.90
2022-09-12T08:57:59.965Z,12.50
2022-09-12T09:03:00.041Z,12.80
2022-09-12T09:07:59.743Z,8.50
2022-09-12T09:12:59.706Z,6.90
2022-09-12T09:17:59.636Z,8.20
2022-09-12T09:22:59.573Z,7.40
2022-09-12T09:27:59.617Z,8.00
2022-09-12T09:32:59.518Z,7.10
2022-09-12T09:37:59.377Z,7.20
2022-09-12T09:42:59.338Z,8.00
2022-09-12T09:47:59.218Z,5.60
2022-09-12T09:52:59.174Z,7.00
2022-09-12T09:57:59.147Z,6.10
2022-09-12T10:02:59.089Z,5.80
2022-09-12T10:07:59.170Z,5.00
2022-09-12T10:12:58.942Z,5.80
2022-09-12T10:17:58.832Z,4.60
2022-09-12T10:22:58.771Z,4.60
2022-09-12T10:27:58.692Z,5.00
2022-09-12T10:32:58.697Z,4.30
2022-09-12T10:37:58.617Z,4.20
2022-09-12T10:42:58.474Z,3.20
2022-09-12T10:47:58.396Z,4.60
2022-09-12T10:52:58.414Z,4.80
2022-09-12T10:57:58.279Z,4.40
2022-09-12T11:02:58.239Z,4.70
2022-09-12T11:07:58.169Z,3.40
2022-09-12T11:12:58.267Z,4.10
2022-09-12T11:17:58.018Z,2.90
2022-09-12T11:22:58.010Z,3.00
2022-09-12T11:27:57.948Z,2.80
2022-09-12T11:32:57.877Z,3.20
2022-09-12T11:37:57.789Z,3.00
2022-09-12T11:42:57.698Z,3.00
2022-09-12T11:47:57.616Z,2.80
2022-09-12T11:52:57.600Z,2.30
2022-09-12T11:57:57.487Z,2.30
2022-09-12T12:02:57.427Z,3.00
2022-09-12T12:07:57.359Z,2.30
2022-09-12T12:12:57.299Z,4.00
2022-09-12T12:17:57.422Z,3.30
2022-09-12T12:22:57.216Z,3.10
2022-09-12T12:27:57.111Z,2.60
2022-09-12T12:32:57.073Z,2.00
2022-09-12T12:37:57.017Z,2.60
2022-09-12T12:42:56.912Z,1.90
2022-09-12T12:47:56.879Z,2.30
2022-09-12T12:52:56.767Z,2.20
2022-09-12T12:57:56.706Z,3.60
2022-09-12T13:02:56.693Z,2.10
2022-09-12T13:07:56.578Z,2.90
2022-09-12T13:12:56.538Z,1.70
2022-09-12T13:17:56.630Z,2.50
2022-09-12T13:22:56.416Z,2.30
2022-09-12T13:27:56.332Z,2.40
2022-09-12T13:32:56.272Z,1.70
2022-09-12T13:37:56.230Z,1.70
2022-09-12T13:42:56.144Z,2.60
2022-09-12T13:47:58.721Z,2.20
2022-09-12T13:52:56.041Z,3.50
2022-09-12T13:57:55.953Z,1.60
2022-09-12T14:02:55.902Z,2.60
2022-09-12T14:07:55.788Z,1.90
2022-09-12T14:12:55.726Z,1.30
2022-09-12T14:17:55.700Z,1.40
2022-09-12T14:22:55.610Z,2.90
2022-09-12T14:27:55.537Z,2.50
2022-09-12T14:32:55.464Z,1.80
2022-09-12T14:37:55.378Z,3.40
2022-09-12T14:43:00.564Z,1.80
2022-09-12T14:47:56.243Z,1.70
2022-09-12T14:52:55.241Z,1.90
2022-09-12T14:57:55.154Z,1.80
2022-09-12T15:02:55.056Z,1.50
2022-09-12T15:07:55.004Z,1.40
2022-09-12T15:12:54.944Z,2.00
2022-09-12T15:17:54.887Z,1.70
2022-09-12T15:22:54.797Z,1.60
2022-09-12T15:27:54.728Z,1.40
2022-09-12T15:32:54.701Z,1.70
2022-09-12T15:37:54.625Z,1.50
2022-09-12T15:42:54.567Z,1.50
2022-09-12T15:47:54.485Z,1.60
2022-09-12T15:52:54.432Z,1.40
2022-09-12T15:57:54.362Z,1.70
2022-09-12T16:02:54.321Z,2.90
2022-09-12T16:07:54.228Z,2.50
2022-09-12T16:12:54.173Z,1.70
2022-09-12T16:17:54.097Z,2.50
2022-09-12T16:22:54.064Z,3.40
2022-09-12T16:27:53.985Z,3.70
2022-09-12T16:32:53.938Z,4.40
2022-09-12T16:37:53.915Z,4.10
2022-09-12T16:42:53.767Z,3.30
2022-09-12T16:47:53.755Z,2.60
2022-09-12T16:52:53.617Z,2.40
2022-09-12T16:57:53.561Z,3.40
2022-09-12T17:02:53.644Z,2.40
2022-09-12T17:07:53.443Z,2.90
2022-09-12T17:12:53.397Z,2.40
2022-09-12T17:17:53.316Z,2.10
2022-09-12T17:22:53.228Z,4.20
2022-09-12T17:27:53.180Z,2.80
2022-09-12T17:32:53.099Z,3.60
2022-09-12T17:37:53.038Z,7.90
2022-09-12T17:42:53.171Z,5.20
2022-09-12T17:47:52.897Z,4.40
2022-09-12T17:52:52.828Z,3.80
2022-09-12T17:57:52.782Z,3.40
2022-09-12T18:02:52.756Z,2.90
2022-09-12T18:07:52.623Z,3.10
2022-09-12T18:12:52.624Z,4.30
2022-09-12T18:17:52.484Z,2.70
2022-09-12T18:22:52.445Z,5.00
2022-09-12T18:27:52.376Z,4.80
2022-09-12T18:32:52.316Z,3.20
2022-09-12T18:37:52.248Z,4.40
2022-09-12T18:42:52.166Z,3.10
2022-09-12T18:47:52.116Z,4.40
2022-09-12T18:52:53.327Z,4.10
2022-09-12T18:57:51.966Z,4.30
2022-09-12T19:02:51.920Z,5.10
2022-09-12T19:07:51.828Z,6.30
2022-09-12T19:12:51.778Z,5.20
2022-09-12T19:17:51.758Z,5.90
2022-09-12T19:22:51.656Z,5.30
2022-09-12T19:27:51.639Z,5.00
2022-09-12T19:32:51.528Z,4.20
2022-09-12T19:37:51.440Z,5.80
2022-09-12T19:42:51.380Z,6.50
2022-09-12T19:47:51.317Z,8.00
2022-09-12T19:52:51.411Z,5.00
2022-09-12T19:57:51.190Z,4.20
2022-09-12T20:02:51.141Z,5.90
2022-09-12T20:07:51.040Z,6.50
2022-09-12T20:12:50.994Z,5.60
2022-09-12T20:17:50.953Z,5.90
2022-09-12T20:22:50.865Z,7.30
2022-09-12T20:27:50.837Z,6.40
2022-09-12T20:32:50.765Z,6.90
2022-09-12T20:37:51.422Z,7.40
2022-09-12T20:42:50.632Z,7.30
2022-09-12T20:47:50.544Z,7.70
2022-09-12T20:52:50.483Z,6.80
2022-09-12T20:57:50.480Z,7.90
2022-09-12T21:02:50.406Z,7.90
2022-09-12T21:07:50.243Z,7.80
2022-09-12T21:12:50.237Z,9.70
2022-09-12T21:17:50.123Z,7.60
2022-09-12T21:22:50.044Z,7.80
2022-09-12T21:27:49.977Z,8.90
2022-09-12T21:32:49.909Z,8.30
2022-09-12T21:37:49.846Z,7.90
2022-09-12T21:42:49.788Z,7.70
2022-09-12T21:47:49.716Z,8.40
2022-09-12T21:52:49.654Z,7.90
2022-09-12T21:57:49.611Z,8.10
2022-09-12T22:02:49.720Z,9.70
2022-09-12T22:07:49.455Z,8.40
2022-09-12T22:12:49.452Z,7.60
2022-09-12T22:17:49.309Z,7.30
2022-09-12T22:22:49.247Z,7.50
2022-09-12T22:27:49.238Z,7.40
2022-09-12T22:32:49.113Z,7.00
2022-09-12T22:37:49.037Z,7.50
2022-09-12T22:42:48.986Z,7.80
2022-09-12T22:47:48.910Z,8.20
2022-09-12T22:52:48.862Z,8.40
2022-09-12T22:57:48.776Z,9.40
2022-09-12T23:02:48.754Z,8.60
2022-09-12T23:07:48.834Z,8.90
2022-09-12T23:12:48.577Z,9.20
2022-09-12T23:17:48.516Z,11.00
2022-09-12T23:22:48.476Z,8.80
2022-09-12T23:27:48.413Z,8.80
2022-09-12T23:32:48.360Z,10.60
2022-09-12T23:37:48.292Z,9.10
2022-09-12T23:42:48.219Z,10.00
2022-09-12T23:47:48.150Z,9.90
2022-09-12T23:52:48.077Z,9.30
2022-09-12T23:57:48.025Z,8.50
